sensor_id;sensor_type;location;lat;lon;timestamp;P1;durP1;ratioP1;P2;durP2;ratioP2
75059;SDS011;63640;59.264;18.116;2023-06-14T00:01:32;10.77;;;2.22;;
75059;SDS011;63640;59.264;18.116;2023-06-14T00:03:59;9.40;;;2.28;;
75059;SDS011;63640;59.264;18.116;2023-06-14T00:06:26;10.38;;;2.42;;
75059;SDS011;63640;59.264;18.116;2023-06-14T00:08:53;7.55;;;2.17;;
75059;SDS011;63640;59.264;18.116;2023-06-14T00:11:19;7.22;;;2.38;;
75059;SDS011;63640;59.264;18.116;2023-06-14T00:13:45;5.50;;;2.40;;
75059;SDS011;63640;59.264;18.116;2023-06-14T00:16:11;9.75;;;2.35;;
75059;SDS011;63640;59.264;18.116;2023-06-14T00:18:37;13.07;;;2.97;;
75059;SDS011;63640;59.264;18.116;2023-06-14T00:21:03;9.50;;;2.47;;
75059;SDS011;63640;59.264;18.116;2023-06-14T00:23:29;7.75;;;2.53;;
75059;SDS011;63640;59.264;18.116;2023-06-14T00:25:55;6.10;;;2.30;;
75059;SDS011;63640;59.264;18.116;2023-06-14T00:28:21;6.03;;;2.40;;
75059;SDS011;63640;59.264;18.116;2023-06-14T00:30:46;8.48;;;2.65;;
75059;SDS011;63640;59.264;18.116;2023-06-14T00:33:12;8.07;;;2.50;;
75059;SDS011;63640;59.264;18.116;2023-06-14T00:35:38;6.97;;;2.22;;
75059;SDS011;63640;59.264;18.116;2023-06-14T00:38:04;7.95;;;2.42;;
75059;SDS011;63640;59.264;18.116;2023-06-14T00:40:29;18.10;;;2.83;;
75059;SDS011;63640;59.264;18.116;2023-06-14T00:42:55;8.98;;;2.65;;
75059;SDS011;63640;59.264;18.116;2023-06-14T00:45:20;5.25;;;2.35;;
75059;SDS011;63640;59.264;18.116;2023-06-14T00:47:46;8.65;;;2.20;;
75059;SDS011;63640;59.264;18.116;2023-06-14T00:50:13;5.38;;;2.00;;
75059;SDS011;63640;59.264;18.116;2023-06-14T00:52:38;6.85;;;2.22;;
75059;SDS011;63640;59.264;18.116;2023-06-14T00:55:04;5.43;;;2.38;;
75059;SDS011;63640;59.264;18.116;2023-06-14T00:57:31;9.52;;;2.30;;
75059;SDS011;63640;59.264;18.116;2023-06-14T00:59:57;6.22;;;2.55;;
75059;SDS011;63640;59.264;18.116;2023-06-14T01:02:22;5.38;;;2.30;;
75059;SDS011;63640;59.264;18.116;2023-06-14T01:04:49;8.15;;;2.63;;
75059;SDS011;63640;59.264;18.116;2023-06-14T01:07:18;5.25;;;2.22;;
75059;SDS011;63640;59.264;18.116;2023-06-14T01:15:17;8.23;;;2.45;;
75059;SDS011;63640;59.264;18.116;2023-06-14T01:17:44;6.93;;;2.78;;
75059;SDS011;63640;59.264;18.116;2023-06-14T01:20:11;6.35;;;2.47;;
75059;SDS011;63640;59.264;18.116;2023-06-14T01:22:58;12.05;;;2.85;;
75059;SDS011;63640;59.264;18.116;2023-06-14T01:25:24;7.03;;;3.00;;
75059;SDS011;63640;59.264;18.116;2023-06-14T01:27:52;9.45;;;2.63;;
75059;SDS011;63640;59.264;18.116;2023-06-14T01:30:21;9.30;;;3.15;;
75059;SDS011;63640;59.264;18.116;2023-06-14T01:32:48;8.80;;;3.17;;
75059;SDS011;63640;59.264;18.116;2023-06-14T01:35:15;7.30;;;2.40;;
75059;SDS011;63640;59.264;18.116;2023-06-14T01:37:41;7.35;;;2.90;;
75059;SDS011;63640;59.264;18.116;2023-06-14T01:40:07;7.40;;;2.35;;
75059;SDS011;63640;59.264;18.116;2023-06-14T01:42:35;8.18;;;2.67;;
75059;SDS011;63640;59.264;18.116;2023-06-14T01:45:02;6.68;;;2.70;;
75059;SDS011;63640;59.264;18.116;2023-06-14T01:47:31;10.63;;;2.33;;
75059;SDS011;63640;59.264;18.116;2023-06-14T01:49:57;6.30;;;2.47;;
75059;SDS011;63640;59.264;18.116;2023-06-14T01:52:22;8.25;;;2.72;;
75059;SDS011;63640;59.264;18.116;2023-06-14T01:54:49;5.70;;;2.60;;
75059;SDS011;63640;59.264;18.116;2023-06-14T01:57:15;6.35;;;2.80;;
75059;SDS011;63640;59.264;18.116;2023-06-14T01:59:42;10.80;;;2.70;;
75059;SDS011;63640;59.264;18.116;2023-06-14T02:02:07;8.05;;;2.42;;
75059;SDS011;63640;59.264;18.116;2023-06-14T02:04:33;6.60;;;2.33;;
75059;SDS011;63640;59.264;18.116;2023-06-14T02:06:59;9.52;;;2.25;;
75059;SDS011;63640;59.264;18.116;2023-06-14T02:09:24;11.07;;;2.53;;
75059;SDS011;63640;59.264;18.116;2023-06-14T02:11:50;7.03;;;2.42;;
75059;SDS011;63640;59.264;18.116;2023-06-14T02:14:16;9.63;;;2.55;;
75059;SDS011;63640;59.264;18.116;2023-06-14T02:16:42;6.63;;;2.60;;
75059;SDS011;63640;59.264;18.116;2023-06-14T02:19:14;9.27;;;2.30;;
75059;SDS011;63640;59.264;18.116;2023-06-14T02:21:41;7.65;;;3.22;;
75059;SDS011;63640;59.264;18.116;2023-06-14T02:24:07;6.93;;;2.53;;
75059;SDS011;63640;59.264;18.116;2023-06-14T02:26:32;6.75;;;2.50;;
75059;SDS011;63640;59.264;18.116;2023-06-14T02:28:58;7.20;;;2.97;;
75059;SDS011;63640;59.264;18.116;2023-06-14T02:31:25;7.32;;;2.60;;
75059;SDS011;63640;59.264;18.116;2023-06-14T02:33:50;7.30;;;3.05;;
75059;SDS011;63640;59.264;18.116;2023-06-14T02:36:16;5.78;;;2.15;;
75059;SDS011;63640;59.264;18.116;2023-06-14T02:38:42;7.80;;;2.72;;
75059;SDS011;63640;59.264;18.116;2023-06-14T02:41:07;7.45;;;2.70;;
75059;SDS011;63640;59.264;18.116;2023-06-14T02:43:33;6.50;;;2.33;;
75059;SDS011;63640;59.264;18.116;2023-06-14T02:45:58;7.53;;;2.58;;
75059;SDS011;63640;59.264;18.116;2023-06-14T02:48:24;7.03;;;2.55;;
75059;SDS011;63640;59.264;18.116;2023-06-14T02:50:49;9.38;;;2.88;;
75059;SDS011;63640;59.264;18.116;2023-06-14T02:53:16;5.90;;;2.60;;
75059;SDS011;63640;59.264;18.116;2023-06-14T02:55:42;10.05;;;2.75;;
75059;SDS011;63640;59.264;18.116;2023-06-14T02:58:09;6.03;;;2.70;;
75059;SDS011;63640;59.264;18.116;2023-06-14T03:00:35;5.68;;;2.70;;
75059;SDS011;63640;59.264;18.116;2023-06-14T03:03:01;6.20;;;2.50;;
75059;SDS011;63640;59.264;18.116;2023-06-14T03:05:27;6.88;;;2.60;;
75059;SDS011;63640;59.264;18.116;2023-06-14T03:07:53;8.32;;;2.80;;
75059;SDS011;63640;59.264;18.116;2023-06-14T03:10:19;7.80;;;2.65;;
75059;SDS011;63640;59.264;18.116;2023-06-14T03:12:44;7.72;;;3.00;;
75059;SDS011;63640;59.264;18.116;2023-06-14T03:15:10;8.63;;;3.20;;
75059;SDS011;63640;59.264;18.116;2023-06-14T03:17:38;8.60;;;3.08;;
75059;SDS011;63640;59.264;18.116;2023-06-14T03:20:04;8.38;;;3.05;;
75059;SDS011;63640;59.264;18.116;2023-06-14T03:22:30;9.18;;;3.20;;
75059;SDS011;63640;59.264;18.116;2023-06-14T03:24:57;8.40;;;2.92;;
75059;SDS011;63640;59.264;18.116;2023-06-14T03:27:24;8.48;;;3.03;;
75059;SDS011;63640;59.264;18.116;2023-06-14T03:29:53;13.85;;;4.80;;
75059;SDS011;63640;59.264;18.116;2023-06-14T03:32:18;6.85;;;2.30;;
75059;SDS011;63640;59.264;18.116;2023-06-14T03:34:44;7.20;;;2.63;;
75059;SDS011;63640;59.264;18.116;2023-06-14T03:37:10;9.52;;;3.08;;
75059;SDS011;63640;59.264;18.116;2023-06-14T03:39:35;6.47;;;2.55;;
75059;SDS011;63640;59.264;18.116;2023-06-14T03:42:01;7.70;;;2.60;;
75059;SDS011;63640;59.264;18.116;2023-06-14T03:44:27;8.32;;;2.55;;
75059;SDS011;63640;59.264;18.116;2023-06-14T03:46:52;9.65;;;3.53;;
75059;SDS011;63640;59.264;18.116;2023-06-14T03:49:18;6.60;;;2.60;;
75059;SDS011;63640;59.264;18.116;2023-06-14T03:51:43;5.85;;;2.83;;
75059;SDS011;63640;59.264;18.116;2023-06-14T03:54:09;6.07;;;2.60;;
75059;SDS011;63640;59.264;18.116;2023-06-14T03:56:35;6.90;;;2.90;;
75059;SDS011;63640;59.264;18.116;2023-06-14T03:59:01;6.97;;;2.70;;
75059;SDS011;63640;59.264;18.116;2023-06-14T04:01:27;5.53;;;2.78;;
75059;SDS011;63640;59.264;18.116;2023-06-14T04:03:55;7.38;;;2.70;;
75059;SDS011;63640;59.264;18.116;2023-06-14T04:06:22;6.90;;;2.45;;
75059;SDS011;63640;59.264;18.116;2023-06-14T04:08:50;7.57;;;2.40;;
75059;SDS011;63640;59.264;18.116;2023-06-14T04:11:16;6.55;;;2.70;;
75059;SDS011;63640;59.264;18.116;2023-06-14T04:13:42;7.53;;;2.80;;
75059;SDS011;63640;59.264;18.116;2023-06-14T04:16:07;8.32;;;2.70;;
75059;SDS011;63640;59.264;18.116;2023-06-14T04:18:33;7.35;;;2.67;;
75059;SDS011;63640;59.264;18.116;2023-06-14T04:20:58;8.27;;;2.97;;
75059;SDS011;63640;59.264;18.116;2023-06-14T04:23:24;7.00;;;2.60;;
75059;SDS011;63640;59.264;18.116;2023-06-14T04:25:50;9.15;;;3.22;;
75059;SDS011;63640;59.264;18.116;2023-06-14T04:28:15;9.40;;;3.47;;
75059;SDS011;63640;59.264;18.116;2023-06-14T04:30:42;8.50;;;2.60;;
75059;SDS011;63640;59.264;18.116;2023-06-14T04:33:08;12.65;;;2.50;;
75059;SDS011;63640;59.264;18.116;2023-06-14T04:35:35;9.00;;;3.28;;
75059;SDS011;63640;59.264;18.116;2023-06-14T04:38:02;8.20;;;3.25;;
75059;SDS011;63640;59.264;18.116;2023-06-14T04:40:30;7.57;;;2.60;;
75059;SDS011;63640;59.264;18.116;2023-06-14T04:42:56;10.57;;;2.85;;
75059;SDS011;63640;59.264;18.116;2023-06-14T04:45:22;7.70;;;3.10;;
75059;SDS011;63640;59.264;18.116;2023-06-14T04:47:49;11.13;;;2.78;;
75059;SDS011;63640;59.264;18.116;2023-06-14T04:50:16;6.80;;;2.72;;
75059;SDS011;63640;59.264;18.116;2023-06-14T04:52:43;8.57;;;2.70;;
75059;SDS011;63640;59.264;18.116;2023-06-14T04:55:08;7.45;;;2.80;;
75059;SDS011;63640;59.264;18.116;2023-06-14T04:57:35;8.13;;;2.20;;
75059;SDS011;63640;59.264;18.116;2023-06-14T05:00:00;7.65;;;2.75;;
75059;SDS011;63640;59.264;18.116;2023-06-14T05:02:29;7.93;;;2.47;;
75059;SDS011;63640;59.264;18.116;2023-06-14T05:04:55;6.53;;;2.30;;
75059;SDS011;63640;59.264;18.116;2023-06-14T05:07:21;9.27;;;2.67;;
75059;SDS011;63640;59.264;18.116;2023-06-14T05:09:49;10.82;;;2.72;;
75059;SDS011;63640;59.264;18.116;2023-06-14T05:12:14;8.85;;;2.85;;
75059;SDS011;63640;59.264;18.116;2023-06-14T05:14:43;12.65;;;2.75;;
75059;SDS011;63640;59.264;18.116;2023-06-14T05:17:09;9.70;;;2.60;;
75059;SDS011;63640;59.264;18.116;2023-06-14T05:19:35;7.70;;;2.58;;
75059;SDS011;63640;59.264;18.116;2023-06-14T05:22:00;6.55;;;2.35;;
75059;SDS011;63640;59.264;18.116;2023-06-14T05:24:28;9.40;;;2.55;;
75059;SDS011;63640;59.264;18.116;2023-06-14T05:26:55;6.68;;;2.35;;
75059;SDS011;63640;59.264;18.116;2023-06-14T05:29:21;7.22;;;2.47;;
75059;SDS011;63640;59.264;18.116;2023-06-14T05:31:47;6.72;;;2.40;;
75059;SDS011;63640;59.264;18.116;2023-06-14T05:34:12;7.55;;;2.95;;
75059;SDS011;63640;59.264;18.116;2023-06-14T05:36:38;8.93;;;2.67;;
75059;SDS011;63640;59.264;18.116;2023-06-14T05:39:04;6.40;;;2.45;;
75059;SDS011;63640;59.264;18.116;2023-06-14T05:41:30;5.75;;;2.53;;
75059;SDS011;63640;59.264;18.116;2023-06-14T05:43:56;7.90;;;2.40;;
75059;SDS011;63640;59.264;18.116;2023-06-14T05:46:22;7.03;;;2.50;;
75059;SDS011;63640;59.264;18.116;2023-06-14T05:48:50;5.82;;;2.40;;
75059;SDS011;63640;59.264;18.116;2023-06-14T05:51:17;8.52;;;2.70;;
75059;SDS011;63640;59.264;18.116;2023-06-14T05:53:48;8.30;;;2.50;;
75059;SDS011;63640;59.264;18.116;2023-06-14T05:56:14;6.03;;;2.33;;
75059;SDS011;63640;59.264;18.116;2023-06-14T05:58:40;7.90;;;2.63;;
75059;SDS011;63640;59.264;18.116;2023-06-14T06:01:06;8.38;;;2.47;;
75059;SDS011;63640;59.264;18.116;2023-06-14T06:03:32;8.75;;;2.80;;
75059;SDS011;63640;59.264;18.116;2023-06-14T06:05:59;6.22;;;2.30;;
75059;SDS011;63640;59.264;18.116;2023-06-14T06:08:25;5.60;;;2.10;;
75059;SDS011;63640;59.264;18.116;2023-06-14T06:10:52;5.57;;;2.35;;
75059;SDS011;63640;59.264;18.116;2023-06-14T06:13:17;10.10;;;2.60;;
75059;SDS011;63640;59.264;18.116;2023-06-14T06:15:44;6.38;;;2.30;;
75059;SDS011;63640;59.264;18.116;2023-06-14T06:18:09;8.40;;;2.42;;
75059;SDS011;63640;59.264;18.116;2023-06-14T06:20:35;9.23;;;3.13;;
75059;SDS011;63640;59.264;18.116;2023-06-14T06:23:01;6.18;;;2.08;;
75059;SDS011;63640;59.264;18.116;2023-06-14T06:25:27;7.25;;;2.72;;
75059;SDS011;63640;59.264;18.116;2023-06-14T06:27:54;6.60;;;2.83;;
75059;SDS011;63640;59.264;18.116;2023-06-14T06:30:22;9.40;;;2.67;;
75059;SDS011;63640;59.264;18.116;2023-06-14T06:32:48;7.10;;;2.85;;
75059;SDS011;63640;59.264;18.116;2023-06-14T06:35:15;5.97;;;2.47;;
75059;SDS011;63640;59.264;18.116;2023-06-14T06:37:41;5.95;;;2.47;;
75059;SDS011;63640;59.264;18.116;2023-06-14T06:40:07;5.10;;;2.28;;
75059;SDS011;63640;59.264;18.116;2023-06-14T06:42:33;5.70;;;2.78;;
75059;SDS011;63640;59.264;18.116;2023-06-14T06:45:01;8.02;;;2.50;;
75059;SDS011;63640;59.264;18.116;2023-06-14T06:47:26;8.40;;;2.63;;
75059;SDS011;63640;59.264;18.116;2023-06-14T06:49:52;7.03;;;2.70;;
75059;SDS011;63640;59.264;18.116;2023-06-14T06:52:17;7.00;;;2.60;;
75059;SDS011;63640;59.264;18.116;2023-06-14T06:54:43;7.05;;;2.50;;
75059;SDS011;63640;59.264;18.116;2023-06-14T06:57:08;7.78;;;2.80;;
75059;SDS011;63640;59.264;18.116;2023-06-14T06:59:35;7.75;;;2.60;;
75059;SDS011;63640;59.264;18.116;2023-06-14T07:02:01;6.63;;;2.30;;
75059;SDS011;63640;59.264;18.116;2023-06-14T07:04:27;6.28;;;2.60;;
75059;SDS011;63640;59.264;18.116;2023-06-14T07:06:52;7.53;;;2.90;;
75059;SDS011;63640;59.264;18.116;2023-06-14T07:09:18;8.50;;;3.28;;
75059;SDS011;63640;59.264;18.116;2023-06-14T07:11:44;6.97;;;2.40;;
75059;SDS011;63640;59.264;18.116;2023-06-14T07:14:10;8.25;;;2.33;;
75059;SDS011;63640;59.264;18.116;2023-06-14T07:16:37;6.50;;;2.42;;
75059;SDS011;63640;59.264;18.116;2023-06-14T07:19:03;6.03;;;2.50;;
75059;SDS011;63640;59.264;18.116;2023-06-14T07:21:29;7.20;;;2.50;;
75059;SDS011;63640;59.264;18.116;2023-06-14T07:23:55;8.00;;;2.88;;
75059;SDS011;63640;59.264;18.116;2023-06-14T07:26:20;8.65;;;2.65;;
75059;SDS011;63640;59.264;18.116;2023-06-14T07:28:46;5.93;;;2.53;;
75059;SDS011;63640;59.264;18.116;2023-06-14T07:31:13;6.28;;;2.47;;
75059;SDS011;63640;59.264;18.116;2023-06-14T07:33:40;6.60;;;2.42;;
75059;SDS011;63640;59.264;18.116;2023-06-14T07:36:06;6.63;;;2.38;;
75059;SDS011;63640;59.264;18.116;2023-06-14T07:38:32;9.82;;;2.65;;
75059;SDS011;63640;59.264;18.116;2023-06-14T07:40:57;5.68;;;2.20;;
75059;SDS011;63640;59.264;18.116;2023-06-14T07:43:23;7.80;;;2.95;;
75059;SDS011;63640;59.264;18.116;2023-06-14T07:45:48;7.10;;;3.00;;
75059;SDS011;63640;59.264;18.116;2023-06-14T07:48:14;6.28;;;2.70;;
75059;SDS011;63640;59.264;18.116;2023-06-14T07:50:39;7.68;;;2.92;;
75059;SDS011;63640;59.264;18.116;2023-06-14T07:53:06;8.15;;;2.55;;
75059;SDS011;63640;59.264;18.116;2023-06-14T07:55:31;6.30;;;2.80;;
75059;SDS011;63640;59.264;18.116;2023-06-14T07:57:58;7.70;;;2.70;;
75059;SDS011;63640;59.264;18.116;2023-06-14T08:00:24;7.80;;;3.00;;
75059;SDS011;63640;59.264;18.116;2023-06-14T08:02:52;7.95;;;2.92;;
75059;SDS011;63640;59.264;18.116;2023-06-14T08:05:23;6.05;;;2.60;;
75059;SDS011;63640;59.264;18.116;2023-06-14T08:07:49;7.38;;;3.25;;
75059;SDS011;63640;59.264;18.116;2023-06-14T08:10:14;6.18;;;3.05;;
75059;SDS011;63640;59.264;18.116;2023-06-14T08:12:40;8.27;;;3.42;;
75059;SDS011;63640;59.264;18.116;2023-06-14T08:15:06;9.23;;;2.95;;
75059;SDS011;63640;59.264;18.116;2023-06-14T08:17:32;8.07;;;3.20;;
75059;SDS011;63640;59.264;18.116;2023-06-14T08:19:57;7.80;;;3.00;;
75059;SDS011;63640;59.264;18.116;2023-06-14T08:22:23;7.22;;;3.38;;
75059;SDS011;63640;59.264;18.116;2023-06-14T08:27:19;7.60;;;2.50;;
75059;SDS011;63640;59.264;18.116;2023-06-14T08:29:46;9.50;;;2.85;;
75059;SDS011;63640;59.264;18.116;2023-06-14T08:32:11;6.75;;;3.13;;
75059;SDS011;63640;59.264;18.116;2023-06-14T08:34:37;7.05;;;3.05;;
75059;SDS011;63640;59.264;18.116;2023-06-14T08:37:03;8.18;;;3.20;;
75059;SDS011;63640;59.264;18.116;2023-06-14T08:39:28;7.70;;;3.28;;
75059;SDS011;63640;59.264;18.116;2023-06-14T08:41:54;7.50;;;2.85;;
75059;SDS011;63640;59.264;18.116;2023-06-14T08:44:20;8.10;;;2.90;;
75059;SDS011;63640;59.264;18.116;2023-06-14T08:46:46;9.27;;;3.10;;
75059;SDS011;63640;59.264;18.116;2023-06-14T08:49:13;8.68;;;3.33;;
75059;SDS011;63640;59.264;18.116;2023-06-14T08:51:42;9.05;;;3.95;;
75059;SDS011;63640;59.264;18.116;2023-06-14T08:54:08;6.90;;;3.50;;
75059;SDS011;63640;59.264;18.116;2023-06-14T08:56:35;9.35;;;2.85;;
75059;SDS011;63640;59.264;18.116;2023-06-14T08:59:03;6.47;;;3.10;;
75059;SDS011;63640;59.264;18.116;2023-06-14T09:01:32;6.35;;;2.92;;
75059;SDS011;63640;59.264;18.116;2023-06-14T09:03:59;5.88;;;2.55;;
75059;SDS011;63640;59.264;18.116;2023-06-14T09:06:25;5.15;;;2.50;;
75059;SDS011;63640;59.264;18.116;2023-06-14T09:08:53;8.30;;;3.08;;
75059;SDS011;63640;59.264;18.116;2023-06-14T09:11:21;6.18;;;2.72;;
75059;SDS011;63640;59.264;18.116;2023-06-14T09:13:47;6.05;;;3.40;;
75059;SDS011;63640;59.264;18.116;2023-06-14T09:16:13;6.05;;;2.80;;
75059;SDS011;63640;59.264;18.116;2023-06-14T09:18:49;6.95;;;3.50;;
75059;SDS011;63640;59.264;18.116;2023-06-14T09:21:15;6.82;;;3.70;;
75059;SDS011;63640;59.264;18.116;2023-06-14T09:23:46;8.38;;;3.60;;
75059;SDS011;63640;59.264;18.116;2023-06-14T09:28:42;5.93;;;3.70;;
75059;SDS011;63640;59.264;18.116;2023-06-14T09:31:10;9.10;;;3.05;;
75059;SDS011;63640;59.264;18.116;2023-06-14T09:33:36;5.68;;;2.90;;
75059;SDS011;63640;59.264;18.116;2023-06-14T09:36:02;6.63;;;3.75;;
75059;SDS011;63640;59.264;18.116;2023-06-14T09:38:28;6.40;;;3.75;;
75059;SDS011;63640;59.264;18.116;2023-06-14T09:40:56;5.32;;;2.90;;
75059;SDS011;63640;59.264;18.116;2023-06-14T09:43:22;7.35;;;3.63;;
75059;SDS011;63640;59.264;18.116;2023-06-14T09:45:48;6.50;;;4.13;;
75059;SDS011;63640;59.264;18.116;2023-06-14T09:48:15;7.03;;;4.10;;
75059;SDS011;63640;59.264;18.116;2023-06-14T09:50:44;6.38;;;3.42;;
75059;SDS011;63640;59.264;18.116;2023-06-14T09:53:11;5.65;;;3.22;;
75059;SDS011;63640;59.264;18.116;2023-06-14T09:55:37;6.30;;;3.35;;
75059;SDS011;63640;59.264;18.116;2023-06-14T09:58:06;5.55;;;3.95;;
75059;SDS011;63640;59.264;18.116;2023-06-14T10:00:33;6.28;;;3.90;;
75059;SDS011;63640;59.264;18.116;2023-06-14T10:03:10;6.63;;;3.20;;
75059;SDS011;63640;59.264;18.116;2023-06-14T10:05:45;6.72;;;3.90;;
75059;SDS011;63640;59.264;18.116;2023-06-14T10:08:16;8.20;;;3.13;;
75059;SDS011;63640;59.264;18.116;2023-06-14T10:10:43;7.15;;;3.20;;
75059;SDS011;63640;59.264;18.116;2023-06-14T10:13:09;7.50;;;3.33;;
75059;SDS011;63640;59.264;18.116;2023-06-14T10:18:18;5.75;;;3.67;;
75059;SDS011;63640;59.264;18.116;2023-06-14T10:23:58;6.43;;;3.28;;
75059;SDS011;63640;59.264;18.116;2023-06-14T10:26:27;7.00;;;3.40;;
75059;SDS011;63640;59.264;18.116;2023-06-14T10:28:56;7.25;;;3.28;;
75059;SDS011;63640;59.264;18.116;2023-06-14T10:31:32;7.90;;;2.92;;
75059;SDS011;63640;59.264;18.116;2023-06-14T10:34:05;6.45;;;3.33;;
75059;SDS011;63640;59.264;18.116;2023-06-14T10:36:31;6.22;;;3.35;;
75059;SDS011;63640;59.264;18.116;2023-06-14T10:39:06;7.50;;;3.80;;
75059;SDS011;63640;59.264;18.116;2023-06-14T10:41:34;6.70;;;3.42;;
75059;SDS011;63640;59.264;18.116;2023-06-14T10:47:06;6.75;;;3.80;;
75059;SDS011;63640;59.264;18.116;2023-06-14T10:49:36;7.57;;;4.05;;
75059;SDS011;63640;59.264;18.116;2023-06-14T10:52:10;8.15;;;4.18;;
75059;SDS011;63640;59.264;18.116;2023-06-14T10:55:27;8.68;;;3.38;;
75059;SDS011;63640;59.264;18.116;2023-06-14T10:57:36;8.30;;;3.15;;
75059;SDS011;63640;59.264;18.116;2023-06-14T11:00:06;6.65;;;3.95;;
75059;SDS011;63640;59.264;18.116;2023-06-14T11:05:08;5.97;;;3.97;;
75059;SDS011;63640;59.264;18.116;2023-06-14T11:10:44;5.72;;;3.10;;
75059;SDS011;63640;59.264;18.116;2023-06-14T11:13:12;6.45;;;3.58;;
75059;SDS011;63640;59.264;18.116;2023-06-14T11:15:39;6.70;;;3.78;;
75059;SDS011;63640;59.264;18.116;2023-06-14T11:18:09;6.03;;;3.72;;
75059;SDS011;63640;59.264;18.116;2023-06-14T11:20:35;6.32;;;3.10;;
75059;SDS011;63640;59.264;18.116;2023-06-14T11:23:01;6.93;;;3.47;;
75059;SDS011;63640;59.264;18.116;2023-06-14T11:25:27;6.80;;;3.38;;
75059;SDS011;63640;59.264;18.116;2023-06-14T11:27:58;8.73;;;3.53;;
75059;SDS011;63640;59.264;18.116;2023-06-14T11:30:24;5.93;;;3.30;;
75059;SDS011;63640;59.264;18.116;2023-06-14T11:32:53;6.80;;;4.10;;
75059;SDS011;63640;59.264;18.116;2023-06-14T11:35:23;6.55;;;3.50;;
75059;SDS011;63640;59.264;18.116;2023-06-14T11:37:50;8.23;;;3.42;;
75059;SDS011;63640;59.264;18.116;2023-06-14T11:40:18;8.38;;;3.20;;
75059;SDS011;63640;59.264;18.116;2023-06-14T11:42:44;5.57;;;3.25;;
75059;SDS011;63640;59.264;18.116;2023-06-14T11:45:10;6.18;;;3.30;;
75059;SDS011;63640;59.264;18.116;2023-06-14T11:47:37;7.10;;;3.70;;
75059;SDS011;63640;59.264;18.116;2023-06-14T11:50:04;6.00;;;3.40;;
75059;SDS011;63640;59.264;18.116;2023-06-14T11:52:32;7.72;;;3.67;;
75059;SDS011;63640;59.264;18.116;2023-06-14T11:54:57;7.20;;;3.63;;
75059;SDS011;63640;59.264;18.116;2023-06-14T11:57:23;5.45;;;3.00;;
75059;SDS011;63640;59.264;18.116;2023-06-14T11:59:50;8.27;;;3.58;;
75059;SDS011;63640;59.264;18.116;2023-06-14T12:02:16;6.18;;;3.70;;
75059;SDS011;63640;59.264;18.116;2023-06-14T12:04:42;8.13;;;3.70;;
75059;SDS011;63640;59.264;18.116;2023-06-14T12:07:11;6.78;;;3.17;;
75059;SDS011;63640;59.264;18.116;2023-06-14T12:09:40;7.05;;;2.90;;
75059;SDS011;63640;59.264;18.116;2023-06-14T12:12:09;6.18;;;3.30;;
75059;SDS011;63640;59.264;18.116;2023-06-14T12:14:35;7.10;;;3.60;;
75059;SDS011;63640;59.264;18.116;2023-06-14T12:17:05;6.60;;;3.10;;
75059;SDS011;63640;59.264;18.116;2023-06-14T12:19:31;5.88;;;3.38;;
75059;SDS011;63640;59.264;18.116;2023-06-14T12:21:59;5.90;;;3.83;;
75059;SDS011;63640;59.264;18.116;2023-06-14T12:24:28;8.90;;;3.90;;
75059;SDS011;63640;59.264;18.116;2023-06-14T12:26:56;6.00;;;3.38;;
75059;SDS011;63640;59.264;18.116;2023-06-14T12:29:24;7.40;;;2.92;;
75059;SDS011;63640;59.264;18.116;2023-06-14T12:31:50;8.82;;;3.80;;
75059;SDS011;63640;59.264;18.116;2023-06-14T12:34:16;7.53;;;2.95;;
75059;SDS011;63640;59.264;18.116;2023-06-14T12:36:41;8.07;;;3.15;;
75059;SDS011;63640;59.264;18.116;2023-06-14T12:39:09;6.18;;;3.45;;
75059;SDS011;63640;59.264;18.116;2023-06-14T12:41:35;6.00;;;3.13;;
75059;SDS011;63640;59.264;18.116;2023-06-14T12:44:02;6.43;;;3.70;;
75059;SDS011;63640;59.264;18.116;2023-06-14T12:46:30;8.15;;;3.13;;
75059;SDS011;63640;59.264;18.116;2023-06-14T12:48:56;6.85;;;3.90;;
75059;SDS011;63640;59.264;18.116;2023-06-14T12:51:21;8.13;;;3.60;;
75059;SDS011;63640;59.264;18.116;2023-06-14T12:53:47;6.38;;;3.30;;
75059;SDS011;63640;59.264;18.116;2023-06-14T12:56:14;9.52;;;3.42;;
75059;SDS011;63640;59.264;18.116;2023-06-14T12:58:41;6.65;;;3.33;;
75059;SDS011;63640;59.264;18.116;2023-06-14T13:01:07;7.45;;;3.45;;
75059;SDS011;63640;59.264;18.116;2023-06-14T13:03:32;6.95;;;3.47;;
75059;SDS011;63640;59.264;18.116;2023-06-14T13:06:01;6.55;;;3.40;;
75059;SDS011;63640;59.264;18.116;2023-06-14T13:08:29;7.00;;;3.17;;
75059;SDS011;63640;59.264;18.116;2023-06-14T13:10:58;6.38;;;2.50;;
75059;SDS011;63640;59.264;18.116;2023-06-14T13:13:24;6.68;;;3.20;;
75059;SDS011;63640;59.264;18.116;2023-06-14T13:15:49;6.55;;;3.45;;
75059;SDS011;63640;59.264;18.116;2023-06-14T13:18:15;6.97;;;3.70;;
75059;SDS011;63640;59.264;18.116;2023-06-14T13:20:41;6.88;;;3.38;;
75059;SDS011;63640;59.264;18.116;2023-06-14T13:23:07;5.97;;;3.03;;
75059;SDS011;63640;59.264;18.116;2023-06-14T13:25:34;8.52;;;4.13;;
75059;SDS011;63640;59.264;18.116;2023-06-14T13:28:00;5.28;;;3.17;;
75059;SDS011;63640;59.264;18.116;2023-06-14T13:30:25;5.82;;;3.05;;
75059;SDS011;63640;59.264;18.116;2023-06-14T13:32:51;6.22;;;3.05;;
75059;SDS011;63640;59.264;18.116;2023-06-14T13:35:19;5.80;;;3.10;;
75059;SDS011;63640;59.264;18.116;2023-06-14T13:37:57;7.13;;;2.67;;
75059;SDS011;63640;59.264;18.116;2023-06-14T13:40:44;7.05;;;3.40;;
75059;SDS011;63640;59.264;18.116;2023-06-14T13:43:35;7.45;;;3.60;;
75059;SDS011;63640;59.264;18.116;2023-06-14T13:46:42;6.05;;;3.20;;
75059;SDS011;63640;59.264;18.116;2023-06-14T13:49:20;6.20;;;3.83;;
75059;SDS011;63640;59.264;18.116;2023-06-14T13:51:49;6.00;;;3.22;;
75059;SDS011;63640;59.264;18.116;2023-06-14T13:54:35;5.40;;;3.25;;
75059;SDS011;63640;59.264;18.116;2023-06-14T13:57:08;6.45;;;3.28;;
75059;SDS011;63640;59.264;18.116;2023-06-14T13:59:37;5.40;;;3.22;;
75059;SDS011;63640;59.264;18.116;2023-06-14T14:02:04;6.35;;;3.03;;
75059;SDS011;63640;59.264;18.116;2023-06-14T14:04:30;6.32;;;2.92;;
75059;SDS011;63640;59.264;18.116;2023-06-14T14:06:56;5.45;;;3.10;;
75059;SDS011;63640;59.264;18.116;2023-06-14T14:09:22;5.55;;;2.92;;
75059;SDS011;63640;59.264;18.116;2023-06-14T14:11:48;8.18;;;3.45;;
75059;SDS011;63640;59.264;18.116;2023-06-14T14:14:14;7.45;;;3.22;;
75059;SDS011;63640;59.264;18.116;2023-06-14T14:16:39;6.75;;;2.72;;
75059;SDS011;63640;59.264;18.116;2023-06-14T14:19:05;7.00;;;3.03;;
75059;SDS011;63640;59.264;18.116;2023-06-14T14:21:31;7.60;;;3.65;;
75059;SDS011;63640;59.264;18.116;2023-06-14T14:23:57;9.02;;;3.33;;
75059;SDS011;63640;59.264;18.116;2023-06-14T14:26:23;6.05;;;3.20;;
75059;SDS011;63640;59.264;18.116;2023-06-14T14:28:49;6.88;;;2.90;;
75059;SDS011;63640;59.264;18.116;2023-06-14T14:31:15;6.30;;;3.30;;
75059;SDS011;63640;59.264;18.116;2023-06-14T14:33:41;7.05;;;3.28;;
75059;SDS011;63640;59.264;18.116;2023-06-14T14:36:06;7.30;;;3.08;;
75059;SDS011;63640;59.264;18.116;2023-06-14T14:38:32;6.05;;;3.17;;
75059;SDS011;63640;59.264;18.116;2023-06-14T14:40:58;7.22;;;2.75;;
75059;SDS011;63640;59.264;18.116;2023-06-14T14:43:23;5.65;;;3.17;;
75059;SDS011;63640;59.264;18.116;2023-06-14T14:45:49;7.00;;;3.05;;
75059;SDS011;63640;59.264;18.116;2023-06-14T14:48:14;6.97;;;3.25;;
75059;SDS011;63640;59.264;18.116;2023-06-14T14:50:40;8.90;;;3.42;;
75059;SDS011;63640;59.264;18.116;2023-06-14T14:53:06;6.63;;;3.10;;
75059;SDS011;63640;59.264;18.116;2023-06-14T14:55:33;5.63;;;2.97;;
75059;SDS011;63640;59.264;18.116;2023-06-14T14:58:01;6.03;;;3.40;;